Time;durP1;ratioP1;P1;durP2;ratioP2;P2;SDS_P1;SDS_P2;PMS_P1;PMS_P2;Temp;Humidity;BMP_temperature;BMP_pressure;BME280_temperature;BME280_humidity;BME280_pressure;Samples;Min_cycle;Max_cycle;Signal;HPM_P1;HPM_P2
2022/11/09 00:01:31;;;;;;;2.55;2.30;;;;;;;12.09;85.00;100540.88;4983515;28;20900;-51
2022/11/09 00:03:59;;;;;;;2.38;2.15;;;;;;;12.13;84.59;100537.31;4979041;28;20245;-52
2022/11/09 00:06:26;;;;;;;2.30;2.10;;;;;;;12.19;84.87;100534.63;4979330;28;20244;-53
2022/11/09 00:08:53;;;;;;;2.70;2.22;;;;;;;12.21;84.46;100535.44;4987623;28;20286;-52
2022/11/09 00:11:21;;;;;;;2.97;1.92;;;;;;;12.09;85.05;100533.84;4983253;28;20248;-52
2022/11/09 00:13:47;;;;;;;2.20;1.95;;;;;;;12.10;85.72;100532.94;4976012;28;20252;-53
2022/11/09 00:16:17;;;;;;;5.97;2.75;;;;;;;12.10;85.71;100529.44;4987644;28;20237;-52
2022/11/09 00:18:46;;;;;;;4.45;2.42;;;;;;;12.07;85.48;100537.34;4985228;28;20237;-52
2022/11/09 00:21:14;;;;;;;2.95;2.67;;;;;;;12.17;85.16;100533.75;4984861;28;20262;-52
2022/11/09 00:23:41;;;;;;;2.50;2.30;;;;;;;12.12;85.00;100525.03;4978920;28;20238;-52
2022/11/09 00:26:09;;;;;;;3.25;2.28;;;;;;;12.11;85.58;100531.16;4975592;28;20245;-53
2022/11/09 00:28:37;;;;;;;2.55;2.35;;;;;;;12.11;85.39;100528.53;4980018;28;20242;-52
2022/11/09 00:31:06;;;;;;;2.67;2.47;;;;;;;12.28;84.45;100534.50;4975470;28;20246;-53
2022/11/09 00:33:34;;;;;;;3.63;2.00;;;;;;;12.23;84.52;100533.69;4982396;28;20231;-52
2022/11/09 00:36:06;;;;;;;3.53;2.53;;;;;;;12.12;85.10;100523.28;4987679;28;20237;-53
2022/11/09 00:38:32;;;;;;;2.00;1.80;;;;;;;12.11;85.70;100526.81;4986804;28;20592;-52
2022/11/09 00:41:00;;;;;;;2.67;2.22;;;;;;;12.07;86.45;100516.31;4985212;28;20234;-52
2022/11/09 00:43:27;;;;;;;2.42;2.22;;;;;;;12.08;86.68;100518.06;4984040;28;20226;-56
2022/11/09 00:45:54;;;;;;;3.47;2.28;;;;;;;12.21;86.41;100516.16;4978177;28;20238;-52
2022/11/09 00:48:21;;;;;;;2.72;2.20;;;;;;;12.17;86.68;100517.97;4977624;28;20234;-53
2022/11/09 00:50:49;;;;;;;1.90;1.80;;;;;;;12.15;86.28;100511.84;4981766;28;20237;-54
2022/11/09 00:53:15;;;;;;;5.28;2.75;;;;;;;12.17;86.04;100516.19;4982922;28;20226;-52
2022/11/09 00:55:42;;;;;;;3.08;1.73;;;;;;;12.08;86.23;100512.81;4984483;28;20621;-52
2022/11/09 00:58:08;;;;;;;1.77;1.67;;;;;;;12.16;85.45;100516.22;4974920;28;20242;-52
2022/11/09 01:00:35;;;;;;;2.35;2.15;;;;;;;12.10;85.39;100511.88;4979519;28;20230;-52
2022/11/09 01:03:03;;;;;;;3.50;2.22;;;;;;;12.18;85.88;100514.47;4974280;28;20240;-51
2022/11/09 01:05:29;;;;;;;2.70;2.50;;;;;;;12.08;85.79;100516.31;4978411;28;20245;-53
2022/11/09 01:07:56;;;;;;;4.25;2.25;;;;;;;12.06;85.86;100511.94;4973836;28;20241;-54
2022/11/09 01:10:23;;;;;;;2.25;1.92;;;;;;;12.13;85.78;100516.25;4982931;28;20234;-53
2022/11/09 01:12:49;;;;;;;4.28;2.15;;;;;;;12.06;85.54;100522.47;4982540;28;20230;-53
2022/11/09 01:15:16;;;;;;;5.15;2.40;;;;;;;11.98;86.33;100514.66;4983963;28;20238;-52
2022/11/09 01:17:42;;;;;;;2.15;1.88;;;;;;;12.00;85.86;100506.75;4982458;28;20683;-54
2022/11/09 01:20:11;;;;;;;3.05;1.98;;;;;;;11.96;86.34;100505.91;4980556;28;20233;-52
2022/11/09 01:22:38;;;;;;;3.33;2.42;;;;;;;11.93;86.39;100503.28;4979831;28;20234;-52
2022/11/09 01:25:05;;;;;;;2.22;2.03;;;;;;;11.88;86.90;100498.09;4974943;28;20248;-53
2022/11/09 01:27:32;;;;;;;3.65;2.17;;;;;;;11.88;86.96;100492.84;4980266;28;20258;-53
2022/11/09 01:29:58;;;;;;;2.72;2.35;;;;;;;11.87;87.43;100491.09;4978237;28;20246;-53
2022/11/09 01:32:25;;;;;;;4.38;2.53;;;;;;;11.83;87.18;100486.72;4974150;28;20712;-52
2022/11/09 01:34:51;;;;;;;2.38;2.13;;;;;;;11.88;87.53;100486.69;4982271;28;20739;-53
2022/11/09 01:37:19;;;;;;;2.55;1.90;;;;;;;11.89;87.07;100481.41;4972854;28;20315;-54
2022/11/09 01:39:45;;;;;;;3.63;2.25;;;;;;;11.94;86.63;100484.88;4978287;28;20236;-52
2022/11/09 01:42:12;;;;;;;2.35;2.03;;;;;;;11.86;86.80;100486.72;4973822;28;20230;-53
2022/11/09 01:44:38;;;;;;;3.33;2.25;;;;;;;11.82;87.30;100495.47;4971920;28;20231;-53
2022/11/09 01:47:07;;;;;;;2.63;2.42;;;;;;;11.75;87.78;100496.44;4965438;28;20246;-52
2022/11/09 01:49:39;;;;;;;5.50;2.42;;;;;;;11.80;87.25;100486.75;4983530;28;20239;-53
2022/11/09 01:52:07;;;;;;;2.05;1.85;;;;;;;11.82;87.25;100497.25;4976455;28;20226;-52
2022/11/09 01:54:40;;;;;;;2.42;2.22;;;;;;;11.75;87.55;100487.66;4974901;28;20237;-53
2022/11/09 01:57:10;;;;;;;3.22;2.20;;;;;;;11.87;87.21;100496.34;4985786;28;20248;-53
2022/11/09 01:59:38;;;;;;;2.40;2.20;;;;;;;11.72;87.79;100491.19;4981771;28;20660;-52
2022/11/09 02:02:05;;;;;;;5.30;2.40;;;;;;;11.67;88.08;100479.88;4984031;28;21006;-54
2022/11/09 02:04:34;;;;;;;5.47;2.05;;;;;;;11.68;88.17;100477.19;4978811;28;20230;-53
2022/11/09 02:07:01;;;;;;;3.38;2.28;;;;;;;11.71;88.33;100466.66;4980345;28;20790;-53
2022/11/09 02:09:31;;;;;;;2.50;1.92;;;;;;;11.68;88.01;100476.34;4981667;28;20230;-51
2022/11/09 02:12:00;;;;;;;2.60;2.30;;;;;;;11.71;87.82;100466.66;4985394;28;20727;-52
2022/11/09 02:14:26;;;;;;;2.22;2.03;;;;;;;11.69;87.48;100459.69;4987663;28;20650;-54
2022/11/09 02:16:53;;;;;;;2.72;2.20;;;;;;;11.77;87.45;100455.22;4986645;28;20242;-53
2022/11/09 02:19:19;;;;;;;2.03;1.90;;;;;;;11.74;87.74;100457.88;4984645;28;20238;-52
2022/11/09 02:21:47;;;;;;;1.98;1.85;;;;;;;11.81;87.79;100456.06;4987925;28;20229;-52
2022/11/09 02:24:14;;;;;;;2.72;2.30;;;;;;;11.82;86.78;100456.03;4987328;28;20261;-53
2022/11/09 02:26:44;;;;;;;3.55;2.70;;;;;;;11.73;87.01;100450.00;4981530;28;20839;-52
2022/11/09 02:29:12;;;;;;;3.75;2.05;;;;;;;11.73;86.92;100452.66;4986200;28;20873;-52
2022/11/09 02:31:42;;;;;;;2.70;2.45;;;;;;;11.71;87.02;100457.91;4979228;28;20807;-53
2022/11/09 02:34:11;;;;;;;5.17;2.00;;;;;;;11.67;87.27;100458.81;4983585;28;20234;-53
2022/11/09 02:36:37;;;;;;;1.98;1.80;;;;;;;11.65;87.96;100456.22;4983962;28;20382;-52
2022/11/09 02:39:06;;;;;;;2.40;2.00;;;;;;;11.65;87.44;100448.34;4986877;28;20240;-53
2022/11/09 02:41:32;;;;;;;3.63;1.80;;;;;;;11.55;88.29;100451.03;4985010;28;20827;-53
2022/11/09 02:44:00;;;;;;;3.15;2.33;;;;;;;11.57;88.36;100455.41;4985453;28;20237;-53
2022/11/09 02:46:35;;;;;;;2.30;2.10;;;;;;;11.61;87.78;100448.34;4985953;28;20238;-53
2022/11/09 02:49:03;;;;;;;2.25;2.05;;;;;;;11.53;88.55;100450.19;4985386;28;20256;-52
2022/11/09 02:51:29;;;;;;;5.95;2.30;;;;;;;11.46;88.98;100446.75;4978348;28;20238;-52
2022/11/09 02:53:56;;;;;;;2.17;1.97;;;;;;;11.50;89.35;100450.22;4980018;28;20234;-52
2022/11/09 02:56:24;;;;;;;2.20;2.00;;;;;;;11.52;89.62;100453.72;4987637;28;20707;-52
2022/11/09 02:58:50;;;;;;;3.00;2.50;;;;;;;11.48;88.84;100450.25;4980570;28;20245;-54
2022/11/09 03:01:17;;;;;;;1.80;1.70;;;;;;;11.49;89.38;100454.63;4975868;28;20226;-53
2022/11/09 03:03:43;;;;;;;2.25;2.05;;;;;;;11.46;89.82;100452.00;4985264;28;20233;-55
2022/11/09 03:06:10;;;;;;;2.27;2.07;;;;;;;11.40;89.43;100450.28;4982456;28;20970;-53
2022/11/09 03:08:37;;;;;;;2.42;1.77;;;;;;;11.37;89.67;100445.09;4979234;28;20237;-53
2022/11/09 03:11:05;;;;;;;2.67;2.20;;;;;;;11.37;89.63;100445.09;4983899;28;20241;-53
2022/11/09 03:13:33;;;;;;;2.33;2.13;;;;;;;11.38;90.43;100441.56;4983392;28;20377;-54
2022/11/09 03:16:04;;;;;;;2.50;2.30;;;;;;;11.42;90.03;100440.66;4984664;28;20234;-53
2022/11/09 03:18:31;;;;;;;3.03;2.13;;;;;;;11.37;89.70;100433.69;4982407;28;20234;-55
2022/11/09 03:21:01;;;;;;;2.00;1.90;;;;;;;11.41;89.79;100431.03;4987203;28;20256;-52
2022/11/09 03:23:29;;;;;;;2.63;2.30;;;;;;;11.44;89.82;100419.59;4984988;28;20261;-52
2022/11/09 03:25:55;;;;;;;3.23;2.13;;;;;;;11.59;89.63;100418.59;4982229;28;20251;-56
2022/11/09 03:28:22;;;;;;;2.60;2.00;;;;;;;11.58;88.38;100417.72;4988673;28;20237;-53
2022/11/09 03:30:50;;;;;;;5.93;2.00;;;;;;;11.57;89.03;100425.63;4974857;28;20254;-53
2022/11/09 03:33:17;;;;;;;2.63;2.00;;;;;;;11.58;89.33;100427.34;4982607;28;20717;-52
2022/11/09 03:35:44;;;;;;;2.47;2.28;;;;;;;11.71;87.15;100429.84;4982038;28;20238;-54
2022/11/09 03:38:11;;;;;;;3.15;2.40;;;;;;;11.66;87.94;100438.69;4981476;28;20790;-53
2022/11/09 03:40:37;;;;;;;2.38;2.05;;;;;;;11.67;87.42;100448.31;4983357;28;20767;-53
2022/11/09 03:43:04;;;;;;;3.42;2.10;;;;;;;11.61;87.73;100466.75;4984113;28;20756;-53
2022/11/09 03:45:31;;;;;;;5.47;2.40;;;;;;;11.62;88.07;100466.78;4981260;28;20289;-52
2022/11/09 03:47:59;;;;;;;2.80;2.05;;;;;;;11.67;87.81;100449.16;4986514;28;20237;-52
2022/11/09 03:50:27;;;;;;;3.00;2.45;;;;;;;11.69;87.85;100462.31;4974447;28;20226;-52
2022/11/09 03:52:54;;;;;;;5.27;2.17;;;;;;;11.73;87.36;100463.16;4973059;28;20241;-52
2022/11/09 03:55:21;;;;;;;1.83;1.50;;;;;;;11.64;88.22;100461.47;4967294;28;21176;-53
2022/11/09 03:57:48;;;;;;;3.83;2.58;;;;;;;11.59;89.40;100461.53;4983433;28;20237;-54
2022/11/09 04:00:17;;;;;;;2.67;2.47;;;;;;;11.60;90.21;100462.41;4977631;28;20574;-53
2022/11/09 04:02:44;;;;;;;4.15;2.20;;;;;;;11.59;90.19;100468.56;4977098;28;20237;-52
2022/11/09 04:05:13;;;;;;;2.55;2.35;;;;;;;11.67;89.30;100464.94;4983720;28;20227;-53
2022/11/09 04:07:40;;;;;;;3.17;2.05;;;;;;;11.62;90.36;100471.16;4979994;28;20633;-53
2022/11/09 04:10:08;;;;;;;2.78;2.35;;;;;;;11.69;89.81;100464.94;4977977;28;20234;-53
2022/11/09 04:12:34;;;;;;;2.03;1.83;;;;;;;11.74;89.80;100457.00;4980097;28;20242;-55
2022/11/09 04:15:01;;;;;;;3.22;1.75;;;;;;;11.72;91.08;100464.91;4978396;28;20268;-53
2022/11/09 04:17:28;;;;;;;2.08;1.90;;;;;;;11.66;91.34;100459.72;4983156;28;20231;-53
2022/11/09 04:19:55;;;;;;;2.20;1.90;;;;;;;11.56;92.42;100464.19;4984317;28;20230;-52
2022/11/09 04:22:23;;;;;;;2.20;2.00;;;;;;;11.52;93.25;100459.84;4982020;28;20329;-52
2022/11/09 04:24:51;;;;;;;2.67;2.45;;;;;;;11.54;93.17;100455.44;4982769;28;20292;-53
2022/11/09 04:27:18;;;;;;;4.43;2.30;;;;;;;11.52;94.00;100454.59;4981669;28;20244;-52
2022/11/09 04:29:44;;;;;;;2.78;2.30;;;;;;;11.51;93.35;100460.72;4975895;28;20284;-54
2022/11/09 04:32:11;;;;;;;3.20;2.20;;;;;;;11.60;93.63;100455.38;4976735;28;20230;-52
2022/11/09 04:34:40;;;;;;;2.05;1.58;;;;;;;11.57;94.12;100446.66;4981032;28;20237;-52
2022/11/09 04:37:06;;;;;;;2.15;1.95;;;;;;;11.67;95.73;100443.03;4975011;28;20725;-52
2022/11/09 04:39:34;;;;;;;2.40;1.92;;;;;;;11.72;93.07;100462.25;4982584;28;20230;-52
2022/11/09 04:42:01;;;;;;;2.30;1.80;;;;;;;11.69;93.37;100457.94;4984678;28;20243;-56
2022/11/09 04:44:28;;;;;;;2.20;2.00;;;;;;;11.67;93.90;100458.81;4978765;28;20286;-53
2022/11/09 04:46:55;;;;;;;2.55;2.35;;;;;;;11.62;94.86;100465.91;4982997;28;20384;-53
2022/11/09 04:49:22;;;;;;;4.35;2.33;;;;;;;11.60;96.20;100451.88;4980505;28;20726;-53
2022/11/09 04:51:48;;;;;;;1.92;1.83;;;;;;;11.62;96.21;100447.50;4980583;28;20293;-51
2022/11/09 04:54:15;;;;;;;3.78;1.85;;;;;;;11.69;95.20;100457.94;4981848;28;20828;-54
2022/11/09 04:56:43;;;;;;;2.25;2.05;;;;;;;11.70;95.27;100454.41;4976911;28;20979;-53
2022/11/09 04:59:10;;;;;;;2.17;1.90;;;;;;;11.66;95.57;100464.97;4983747;28;20230;-54
2022/11/09 05:01:37;;;;;;;3.80;2.45;;;;;;;11.78;94.79;100466.59;4984374;28;20832;-52
2022/11/09 05:04:04;;;;;;;5.18;2.17;;;;;;;11.76;95.41;100471.00;4970568;28;20242;-52
2022/11/09 05:06:34;;;;;;;2.55;2.13;;;;;;;11.76;94.44;100458.75;4980964;28;20234;-54
2022/11/09 05:09:02;;;;;;;4.43;2.80;;;;;;;11.74;95.36;100468.41;4976907;28;20308;-52
2022/11/09 05:11:28;;;;;;;1.98;1.80;;;;;;;11.73;95.02;100466.66;4983087;28;20580;-52
2022/11/09 05:13:57;;;;;;;2.63;2.20;;;;;;;11.83;95.90;100470.94;4981591;28;20312;-54
2022/11/09 05:16:24;;;;;;;2.65;2.00;;;;;;;11.91;94.69;100474.38;4975977;28;20234;-53
2022/11/09 05:18:51;;;;;;;2.88;2.53;;;;;;;11.83;95.34;100460.41;4973220;28;20238;-53
2022/11/09 05:21:18;;;;;;;3.70;2.42;;;;;;;11.77;97.32;100478.88;4979729;28;20256;-53
2022/11/09 05:23:59;;;;;;;2.33;2.13;;;;;;;11.80;97.12;100465.72;4977155;28;20229;-53
2022/11/09 05:26:28;;;;;;;3.80;2.60;;;;;;;11.68;98.69;100473.72;4972258;28;20238;-52
2022/11/09 05:28:57;;;;;;;2.40;2.20;;;;;;;11.79;99.12;100477.09;4973476;28;20259;-53
2022/11/09 05:31:24;;;;;;;4.10;2.80;;;;;;;11.67;99.14;100471.97;4983170;28;20242;-52
2022/11/09 05:33:51;;;;;;;4.97;2.77;;;;;;;11.66;100.00;100478.13;4976017;28;20273;-53
2022/11/09 05:36:18;;;;;;;2.37;2.17;;;;;;;11.63;100.00;100478.16;4980453;28;20235;-51
2022/11/09 05:38:46;;;;;;;2.33;2.13;;;;;;;11.61;100.00;100488.66;4973101;28;20241;-53
2022/11/09 05:41:13;;;;;;;3.40;2.40;;;;;;;11.66;100.00;100499.16;4982988;28;21000;-52
2022/11/09 05:43:40;;;;;;;2.72;2.53;;;;;;;11.59;100.00;100481.69;4985108;28;20288;-52
2022/11/09 05:46:08;;;;;;;4.77;2.87;;;;;;;11.61;100.00;100482.53;4980325;28;20238;-54
2022/11/09 05:48:35;;;;;;;3.13;2.83;;;;;;;11.63;100.00;100472.91;4968940;28;20254;-52
2022/11/09 05:51:03;;;;;;;2.63;2.42;;;;;;;11.63;100.00;100465.00;4975531;28;20245;-54
2022/11/09 05:53:30;;;;;;;3.90;2.58;;;;;;;11.78;100.00;100477.13;4983561;28;20230;-53
2022/11/09 05:56:01;;;;;;;4.40;2.42;;;;;;;11.71;100.00;100481.56;4982841;28;20252;-52
2022/11/09 05:58:31;;;;;;;3.00;2.80;;;;;;;11.65;100.00;100487.78;4980805;28;20230;-52
2022/11/09 06:00:58;;;;;;;4.28;2.40;;;;;;;11.65;100.00;100484.25;4984205;28;20280;-52
2022/11/09 06:03:27;;;;;;;2.63;2.20;;;;;;;11.75;100.00;100478.03;4980501;28;20316;-53
2022/11/09 06:05:54;;;;;;;2.70;2.50;;;;;;;11.79;100.00;100479.72;4981544;28;20242;-52
2022/11/09 06:08:21;;;;;;;4.88;2.53;;;;;;;11.77;100.00;100480.66;4988034;28;20241;-53
2022/11/09 06:10:47;;;;;;;4.40;2.60;;;;;;;11.71;100.00;100476.31;4982118;28;20230;-54
2022/11/09 06:13:14;;;;;;;3.40;2.67;;;;;;;11.70;100.00;100485.09;4986462;28;20257;-53
2022/11/09 06:15:41;;;;;;;7.10;2.90;;;;;;;11.78;100.00;100488.50;4973647;28;20235;-53
2022/11/09 06:18:08;;;;;;;3.42;2.95;;;;;;;11.74;100.00;100496.47;4973855;28;20230;-57
2022/11/09 06:20:36;;;;;;;3.80;3.10;;;;;;;11.79;100.00;100494.63;4971847;28;20242;-52
2022/11/09 06:23:02;;;;;;;4.50;2.83;;;;;;;11.93;100.00;100498.94;4976497;28;20758;-53
2022/11/09 06:25:30;;;;;;;2.72;2.30;;;;;;;11.90;100.00;100514.75;4978161;28;20268;-53
2022/11/09 06:27:57;;;;;;;3.00;2.53;;;;;;;11.91;100.00;100505.97;4976713;28;20245;-52
2022/11/09 06:30:24;;;;;;;3.00;2.47;;;;;;;11.87;100.00;100509.50;4980239;28;20234;-54
2022/11/09 06:32:50;;;;;;;3.63;2.92;;;;;;;11.86;100.00;100506.88;4982184;28;20241;-52
2022/11/09 06:35:17;;;;;;;2.97;2.58;;;;;;;11.96;100.00;100505.91;4978257;28;20245;-51
2022/11/09 06:37:45;;;;;;;3.10;2.80;;;;;;;11.87;100.00;100513.91;4977800;28;20240;-52
2022/11/09 06:40:14;;;;;;;3.70;2.80;;;;;;;11.81;100.00;100508.66;4982676;28;20925;-53
2022/11/09 06:42:40;;;;;;;2.77;2.23;;;;;;;11.77;100.00;100506.94;4979002;28;20627;-53
2022/11/09 06:45:09;;;;;;;2.80;2.42;;;;;;;11.67;100.00;100512.28;4978191;28;20324;-53
2022/11/09 06:47:36;;;;;;;2.50;2.30;;;;;;;11.64;100.00;100514.06;4977931;28;20258;-53
2022/11/09 06:50:03;;;;;;;4.17;3.13;;;;;;;11.52;100.00;100511.56;4980027;28;20670;-54
2022/11/09 06:52:30;;;;;;;3.37;2.73;;;;;;;11.53;100.00;100511.53;4973499;28;20309;-53
2022/11/09 06:54:58;;;;;;;3.67;2.57;;;;;;;11.54;100.00;100525.56;4980327;28;20234;-54
2022/11/09 06:57:28;;;;;;;4.57;2.67;;;;;;;11.41;100.00;100517.78;4981686;28;20234;-54
2022/11/09 06:59:55;;;;;;;8.40;3.20;;;;;;;11.34;100.00;100534.47;4978617;28;20237;-53
2022/11/09 07:02:22;;;;;;;4.33;2.63;;;;;;;11.22;100.00;100534.56;4984408;28;20292;-54
2022/11/09 07:04:51;;;;;;;3.03;2.73;;;;;;;11.15;100.00;100544.22;4975612;28;20268;-52
2022/11/09 07:07:18;;;;;;;3.63;2.77;;;;;;;11.09;100.00;100540.75;4984296;28;20234;-53
2022/11/09 07:09:45;;;;;;;4.23;3.23;;;;;;;11.05;100.00;100533.78;4982047;28;20229;-53
2022/11/09 07:12:13;;;;;;;4.03;2.60;;;;;;;10.94;100.00;100537.34;4975854;28;20230;-52
2022/11/09 07:14:40;;;;;;;4.00;2.93;;;;;;;10.83;100.00;100531.28;4984626;28;20325;-53
2022/11/09 07:17:07;;;;;;;5.97;3.27;;;;;;;10.75;100.00;100522.59;4974186;28;20249;-53
2022/11/09 07:19:34;;;;;;;2.90;2.60;;;;;;;10.79;100.00;100512.94;4977831;28;20230;-52
2022/11/09 07:22:01;;;;;;;9.07;3.27;;;;;;;10.69;100.00;100512.09;4977939;28;20242;-53
2022/11/09 07:24:28;;;;;;;4.10;3.43;;;;;;;10.67;100.00;100503.34;4979886;28;20279;-53
2022/11/09 07:26:54;;;;;;;6.77;2.90;;;;;;;10.60;100.00;100504.25;4969388;28;20238;-53
2022/11/09 07:29:22;;;;;;;4.73;3.13;;;;;;;10.59;100.00;100495.53;4983011;28;20267;-53
2022/11/09 07:31:49;;;;;;;4.93;3.57;;;;;;;10.58;100.00;100466.66;4977066;28;20713;-52
2022/11/09 07:34:16;;;;;;;4.03;3.43;;;;;;;10.65;100.00;100466.63;4978155;28;20234;-53
2022/11/09 07:36:43;;;;;;;3.27;2.97;;;;;;;10.68;100.00;100452.63;4975566;28;20269;-53
2022/11/09 07:39:10;;;;;;;3.93;3.27;;;;;;;10.65;100.00;100463.13;4976517;28;20245;-52
2022/11/09 07:41:37;;;;;;;3.57;3.00;;;;;;;10.63;100.00;100499.00;4976243;28;20233;-53
2022/11/09 07:44:04;;;;;;;5.90;3.40;;;;;;;10.66;100.00;100527.88;4978230;28;20249;-53
2022/11/09 07:46:34;;;;;;;7.60;4.30;;;;;;;10.63;100.00;100534.00;4978699;28;20629;-54
2022/11/09 07:49:01;;;;;;;4.93;3.43;;;;;;;10.62;100.00;100541.91;4978990;28;20250;-52
2022/11/09 07:51:27;;;;;;;4.43;4.03;;;;;;;10.62;100.00;100531.41;4977859;28;20411;-53
2022/11/09 07:53:54;;;;;;;4.80;3.17;;;;;;;10.60;100.00;100533.16;4978933;28;20738;-52
2022/11/09 07:56:21;;;;;;;6.63;3.13;;;;;;;10.59;100.00;100527.03;4975639;28;20724;-52
2022/11/09 07:58:50;;;;;;;5.83;4.00;;;;;;;10.65;100.00;100529.63;4979456;28;20282;-52
2022/11/09 08:01:16;;;;;;;3.77;3.47;;;;;;;10.71;100.00;100536.63;4974905;28;20485;-52
2022/11/09 08:03:44;;;;;;;9.53;3.47;;;;;;;10.72;100.00;100539.22;4984184;28;20230;-52
2022/11/09 08:06:12;;;;;;;8.43;4.10;;;;;;;10.77;100.00;100533.94;4981286;28;20230;-53
2022/11/09 08:08:39;;;;;;;4.13;3.33;;;;;;;10.75;100.00;100538.34;4981865;28;20933;-52
2022/11/09 08:11:06;;;;;;;4.90;4.40;;;;;;;10.85;100.00;100534.78;4981623;28;20233;-53
2022/11/09 08:13:33;;;;;;;4.30;3.80;;;;;;;10.94;100.00;100529.47;4982425;28;20230;-53
2022/11/09 08:16:01;;;;;;;2.83;2.63;;;;;;;10.90;100.00;100527.75;4982960;28;21058;-53
2022/11/09 08:18:28;;;;;;;4.07;3.50;;;;;;;10.93;100.00;100533.00;4981405;28;20613;-52
2022/11/09 08:20:56;;;;;;;5.83;3.57;;;;;;;11.04;100.00;100534.69;4979114;28;20229;-53
2022/11/09 08:23:23;;;;;;;6.37;3.67;;;;;;;11.01;100.00;100530.31;4980771;28;20450;-54
2022/11/09 08:25:50;;;;;;;6.50;3.43;;;;;;;11.01;100.00;100534.69;4983986;28;20234;-52
2022/11/09 08:28:17;;;;;;;3.53;2.97;;;;;;;11.16;100.00;100534.59;4980384;28;20269;-52
2022/11/09 08:30:45;;;;;;;3.93;3.50;;;;;;;11.15;100.00;100535.47;4979985;28;20234;-53
2022/11/09 08:33:13;;;;;;;3.90;3.30;;;;;;;11.25;100.00;100524.03;4977648;28;20938;-52
2022/11/09 08:35:39;;;;;;;6.53;3.70;;;;;;;11.11;100.00;100518.88;4976805;28;20233;-52
2022/11/09 08:38:07;;;;;;;5.03;3.17;;;;;;;11.14;100.00;100512.72;4976753;28;20257;-53
2022/11/09 08:40:34;;;;;;;6.07;3.70;;;;;;;11.17;100.00;100513.56;4982198;28;20241;-52
2022/11/09 08:43:02;;;;;;;6.27;3.60;;;;;;;11.17;100.00;100537.22;4981539;28;20662;-53
2022/11/09 08:45:31;;;;;;;7.50;4.07;;;;;;;11.27;100.00;100540.66;4977105;28;21927;-52
2022/11/09 08:47:59;;;;;;;5.03;3.17;;;;;;;11.39;100.00;100539.69;4973947;28;20257;-52
2022/11/09 08:50:26;;;;;;;5.17;3.10;;;;;;;11.40;100.00;100549.31;4978383;28;20253;-54
2022/11/09 08:52:53;;;;;;;4.03;3.40;;;;;;;11.34;100.00;100562.53;4980072;28;20237;-52
2022/11/09 08:55:21;;;;;;;5.73;3.47;;;;;;;11.38;100.00;100557.22;4984317;28;21574;-52
2022/11/09 08:57:48;;;;;;;7.70;4.03;;;;;;;11.41;100.00;100562.47;4985895;28;20724;-55
2022/11/09 09:00:16;;;;;;;7.57;3.83;;;;;;;11.32;100.00;100557.25;4980021;28;20226;-53
2022/11/09 09:02:42;;;;;;;3.73;3.40;;;;;;;11.36;100.00;100560.75;4984374;28;20237;-53
2022/11/09 09:05:09;;;;;;;3.93;3.53;;;;;;;11.37;100.00;100550.25;4981126;28;20263;-53
2022/11/09 09:07:36;;;;;;;4.50;3.33;;;;;;;11.39;100.00;100556.34;4977673;28;20239;-57
2022/11/09 09:10:03;;;;;;;6.28;3.30;;;;;;;11.45;100.00;100558.06;4970859;28;20249;-52
2022/11/09 09:12:32;;;;;;;3.93;3.07;;;;;;;11.45;100.00;100556.31;4980328;28;20233;-53
2022/11/09 09:14:59;;;;;;;3.70;3.40;;;;;;;11.44;100.00;100556.28;4973163;28;20234;-55
2022/11/09 09:17:25;;;;;;;5.23;3.33;;;;;;;11.48;100.00;100552.78;4979645;28;20226;-52
2022/11/09 09:19:52;;;;;;;5.43;3.73;;;;;;;11.53;100.00;100564.13;4984030;28;20238;-52
2022/11/09 09:22:19;;;;;;;6.07;4.10;;;;;;;11.61;100.00;100558.78;4978115;28;20230;-54
2022/11/09 09:24:45;;;;;;;4.53;3.13;;;;;;;11.61;100.00;100561.44;4981818;28;20244;-52
2022/11/09 09:27:12;;;;;;;5.20;3.85;;;;;;;11.68;100.00;100568.38;4982192;28;20231;-52
2022/11/09 09:29:40;;;;;;;6.50;3.50;;;;;;;11.73;100.00;100566.59;4971368;28;20235;-52
2022/11/09 09:32:06;;;;;;;8.13;4.13;;;;;;;11.70;100.00;100569.25;4977540;28;20238;-53
2022/11/09 09:34:33;;;;;;;5.07;4.53;;;;;;;11.76;100.00;100579.72;4981932;28;20234;-53
2022/11/09 09:36:59;;;;;;;3.92;3.53;;;;;;;11.86;100.00;100586.69;4983347;28;20611;-53
2022/11/09 09:39:25;;;;;;;5.28;3.65;;;;;;;11.94;100.00;100574.34;4979155;28;20233;-54
2022/11/09 09:41:54;;;;;;;4.15;3.72;;;;;;;11.99;100.00;100576.91;4973904;28;20241;-52
2022/11/09 09:44:28;;;;;;;4.78;3.80;;;;;;;11.98;100.00;100596.22;4981862;28;20234;-53
2022/11/09 09:47:01;;;;;;;5.50;3.55;;;;;;;11.95;100.00;100596.25;4979505;28;20237;-53
2022/11/09 09:49:30;;;;;;;6.13;3.63;;;;;;;11.98;100.00;100601.50;4979915;28;20284;-54
2022/11/09 09:52:00;;;;;;;5.22;4.63;;;;;;;11.94;100.00;100605.91;4982287;28;20225;-54
2022/11/09 09:54:29;;;;;;;6.97;5.15;;;;;;;11.96;100.00;100591.84;4974221;28;20232;-53
2022/11/09 09:56:59;;;;;;;5.25;4.45;;;;;;;11.93;100.00;100588.38;4976986;28;20235;-54
2022/11/09 09:59:31;;;;;;;5.78;3.17;;;;;;;11.93;100.00;100595.38;4973459;28;20619;-54
2022/11/09 10:01:59;;;;;;;3.83;3.38;;;;;;;12.09;100.00;100598.75;4974388;28;20234;-53
2022/11/09 10:04:34;;;;;;;4.90;3.88;;;;;;;12.05;100.00;100599.69;4976537;28;20234;-53
2022/11/09 10:07:05;;;;;;;5.07;3.85;;;;;;;12.06;100.00;100604.03;4976555;28;20245;-57
2022/11/09 10:09:43;;;;;;;4.32;3.17;;;;;;;12.08;100.00;100612.81;4980196;28;20240;-53
2022/11/09 10:12:16;;;;;;;5.50;3.88;;;;;;;12.08;100.00;100599.66;4978727;28;20232;-53
2022/11/09 10:14:57;;;;;;;4.35;3.60;;;;;;;12.18;100.00;100602.19;4980414;28;20252;-52
2022/11/09 10:17:33;;;;;;;6.60;3.63;;;;;;;12.15;100.00;100619.75;4978206;28;20238;-52
2022/11/09 10:20:14;;;;;;;4.17;3.77;;;;;;;12.08;100.00;100615.44;4977983;28;20233;-53
2022/11/09 10:22:47;;;;;;;4.05;3.42;;;;;;;12.09;100.00;100610.16;4969089;28;20239;-53
2022/11/09 10:25:17;;;;;;;4.23;3.70;;;;;;;12.02;100.00;100604.97;4974531;28;20249;-52
2022/11/09 10:27:49;;;;;;;4.75;3.17;;;;;;;12.02;100.00;100592.69;4976850;28;20320;-53
2022/11/09 10:30:17;;;;;;;4.85;4.07;;;;;;;12.01;100.00;100590.06;4979165;28;20252;-52
2022/11/09 10:32:48;;;;;;;4.90;3.67;;;;;;;12.09;100.00;100583.84;4981932;28;20684;-52
2022/11/09 10:35:19;;;;;;;3.72;3.35;;;;;;;12.16;100.00;100585.53;4976297;28;20631;-53
2022/11/09 10:37:47;;;;;;;5.00;3.37;;;;;;;12.20;100.00;100581.09;4982540;28;20290;-53
2022/11/09 10:40:17;;;;;;;3.95;3.42;;;;;;;12.32;100.00;100580.97;4987277;28;20615;-52
2022/11/09 10:42:45;;;;;;;6.38;3.97;;;;;;;12.49;100.00;100587.81;4979826;28;20254;-52
2022/11/09 10:45:13;;;;;;;3.88;3.58;;;;;;;12.60;100.00;100575.38;4988103;28;20276;-53
2022/11/09 10:47:49;;;;;;;6.18;3.80;;;;;;;12.65;100.00;100584.97;4983012;28;20229;-52
2022/11/09 10:50:23;;;;;;;7.25;4.07;;;;;;;12.70;100.00;100578.78;4981218;28;20589;-52
2022/11/09 10:52:49;;;;;;;4.25;3.38;;;;;;;12.71;100.00;100573.50;4973015;28;20978;-52
2022/11/09 10:55:22;;;;;;;6.15;3.35;;;;;;;12.69;100.00;100558.59;4983861;28;20238;-53
2022/11/09 10:57:58;;;;;;;5.70;3.63;;;;;;;12.77;100.00;100562.88;4983254;28;20239;-53
2022/11/09 11:00:25;;;;;;;5.15;3.38;;;;;;;12.85;100.00;100571.56;4979446;28;20233;-52
2022/11/09 11:02:53;;;;;;;3.85;3.42;;;;;;;12.94;100.00;100562.66;4980282;28;20587;-51
2022/11/09 11:05:31;;;;;;;4.82;3.45;;;;;;;12.98;100.00;100572.25;4982267;28;20718;-55
2022/11/09 11:07:58;;;;;;;2.95;2.53;;;;;;;13.01;100.00;100555.53;4981368;28;20236;-53
2022/11/09 11:10:25;;;;;;;2.70;2.50;;;;;;;13.12;100.00;100554.50;4982668;28;20245;-54
2022/11/09 11:12:58;;;;;;;4.70;2.95;;;;;;;13.28;100.00;100560.47;4971237;28;20230;-53
2022/11/09 11:15:26;;;;;;;4.20;2.40;;;;;;;13.30;100.00;100556.06;4981583;28;20252;-53
2022/11/09 11:18:03;;;;;;;3.10;2.78;;;;;;;13.25;100.00;100562.28;4973201;28;20245;-53
2022/11/09 11:20:31;;;;;;;4.25;2.70;;;;;;;13.34;100.00;100555.09;4982205;28;20241;-52
2022/11/09 11:23:11;;;;;;;3.13;2.38;;;;;;;13.34;100.00;100546.31;4980927;28;20258;-53
2022/11/09 11:25:56;;;;;;;2.42;2.22;;;;;;;13.38;100.00;100548.00;4973565;28;20238;-52